Time;durP1;ratioP1;P1;durP2;ratioP2;P2;SDS_P1;SDS_P2;PMS_P1;PMS_P2;Temp;Humidity;BMP_temperature;BMP_pressure;BME280_temperature;BME280_humidity;BME280_pressure;Samples;Min_cycle;Max_cycle;Signal;HPM_P1;HPM_P2
2022/10/17 00:00:26;;;;;;;30.00;19.70;;;;;;;9.93;77.11;99839.98;86896;1293;99186;-74
2022/10/17 00:02:48;;;;;;;31.20;18.60;;;;;;;9.89;77.10;99842.89;86919;1293;22516;-74
2022/10/17 00:04:50;;;;;;;30.80;19.00;;;;;;;9.85;77.11;99842.15;87100;1289;97787;-73
2022/10/17 00:06:52;;;;;;;31.40;19.00;;;;;;;9.83;77.15;99839.94;87070;1300;22554;-73
2022/10/17 00:08:53;;;;;;;35.20;20.50;;;;;;;9.83;77.24;99845.91;87123;1291;22881;-75
2022/10/17 00:11:03;;;;;;;29.40;21.10;;;;;;;9.82;77.43;99844.20;87012;1286;98010;-73
2022/10/17 00:13:06;;;;;;;30.10;19.40;;;;;;;9.82;77.57;99847.88;87134;1314;22480;-77
2022/10/17 00:15:10;;;;;;;32.70;20.80;;;;;;;9.82;77.51;99851.05;87080;1291;22543;-75
2022/10/17 00:17:13;;;;;;;29.70;20.40;;;;;;;9.80;77.59;99853.57;86902;1302;99984;-74
2022/10/17 00:19:15;;;;;;;29.00;20.00;;;;;;;9.77;77.52;99855.77;87035;1289;22956;-74
2022/10/17 00:21:18;;;;;;;36.80;21.00;;;;;;;9.75;77.86;99854.42;87128;1289;22125;-73
2022/10/17 00:23:21;;;;;;;32.60;19.40;;;;;;;9.74;77.82;99849.54;87054;1283;98328;-78
2022/10/17 00:25:22;;;;;;;35.30;19.80;;;;;;;9.72;77.64;99852.92;87519;1290;22528;-75
2022/10/17 00:27:24;;;;;;;33.70;19.30;;;;;;;9.69;77.72;99855.48;87516;1288;22438;-75
2022/10/17 00:29:25;;;;;;;37.30;20.20;;;;;;;9.64;77.60;99851.75;87561;1293;98909;-79
2022/10/17 00:31:27;;;;;;;30.40;20.30;;;;;;;9.65;77.83;99859.28;87541;1317;22613;-78
2022/10/17 00:33:30;;;;;;;33.80;20.70;;;;;;;9.64;77.55;99860.36;87397;1309;22155;-77
2022/10/17 00:35:32;;;;;;;26.10;18.50;;;;;;;9.64;77.70;99860.00;87722;1293;97901;-80
2022/10/17 00:37:34;;;;;;;26.90;18.30;;;;;;;9.62;77.72;99864.80;87453;1299;22732;-76
2022/10/17 00:39:37;;;;;;;30.70;19.40;;;;;;;9.60;77.69;99861.00;87743;1299;22514;-78
2022/10/17 00:41:39;;;;;;;25.70;18.30;;;;;;;9.56;77.69;99867.27;87491;1299;98604;-79
2022/10/17 00:44:29;;;;;;;36.00;19.40;;;;;;;9.51;77.60;99862.67;87582;1299;22552;-79
2022/10/17 00:46:36;;;;;;;29.70;18.60;;;;;;;9.46;77.87;99861.60;86980;1289;22814;-78
2022/10/17 00:48:38;;;;;;;30.30;18.50;;;;;;;9.41;77.85;99858.58;86649;1308;98931;-79
2022/10/17 00:50:48;;;;;;;30.90;20.10;;;;;;;9.43;77.73;99863.61;86954;1299;22828;-79
2022/10/17 00:52:51;;;;;;;30.30;19.40;;;;;;;9.43;77.80;99864.83;86866;1295;98134;-78
2022/10/17 00:55:28;;;;;;;31.80;20.10;;;;;;;9.42;77.87;99863.45;86730;1299;22007;-76
2022/10/17 00:57:32;;;;;;;32.20;19.80;;;;;;;9.40;78.04;99861.60;86938;1299;22365;-76
2022/10/17 00:59:37;;;;;;;29.00;19.30;;;;;;;9.40;77.96;99860.70;86550;1299;98290;-79
2022/10/17 01:01:41;;;;;;;29.20;19.00;;;;;;;9.43;77.95;99857.83;86683;1298;22533;-76
2022/10/17 01:03:43;;;;;;;41.00;20.50;;;;;;;9.44;77.94;99856.92;86903;1292;22483;-78
2022/10/17 01:05:45;;;;;;;33.10;19.70;;;;;;;9.44;77.99;99853.42;86657;1291;98596;-78
2022/10/17 01:07:49;;;;;;;27.50;19.90;;;;;;;9.45;77.91;99856.38;86753;1292;22149;-78
2022/10/17 01:09:51;;;;;;;25.20;18.40;;;;;;;9.41;77.78;99852.42;86926;1290;22569;-79
2022/10/17 01:12:06;;;;;;;29.60;18.90;;;;;;;9.39;77.79;99857.23;86350;1308;98047;-76
2022/10/17 01:14:20;;;;;;;28.50;19.80;;;;;;;9.35;77.77;99861.36;86664;1299;22908;-77
2022/10/17 01:16:38;;;;;;;30.70;19.80;;;;;;;9.34;77.92;99865.95;86970;1299;22532;-78
2022/10/17 01:19:18;;;;;;;32.40;19.90;;;;;;;9.35;78.07;99868.56;86706;1305;97890;-78
2022/10/17 01:21:44;;;;;;;36.20;22.50;;;;;;;9.35;78.04;99866.10;86855;1296;22551;-80
2022/10/17 01:24:01;;;;;;;34.50;20.00;;;;;;;9.36;78.31;99860.30;87655;1290;98053;-79
2022/10/17 01:26:12;;;;;;;31.50;19.30;;;;;;;9.37;78.43;99860.63;87544;1296;22676;-78
2022/10/17 01:28:50;;;;;;;36.10;21.00;;;;;;;9.35;78.34;99856.82;87519;1290;22443;-75
2022/10/17 01:31:10;;;;;;;35.10;21.30;;;;;;;9.37;78.33;99864.29;87553;1297;22576;-77
2022/10/17 01:33:21;;;;;;;32.40;18.40;;;;;;;9.36;78.35;99858.89;87593;1291;22522;-77
2022/10/17 01:35:35;;;;;;;;;;;;;;;9.35;78.22;99860.31;87582;1293;98084;-77
2022/10/17 01:37:45;;;;;;;33.20;20.30;;;;;;;9.32;78.22;99866.55;87622;1283;22517;-78
2022/10/17 01:39:59;;;;;;;28.40;19.70;;;;;;;9.29;78.24;99863.98;87587;1284;22578;-77
2022/10/17 01:45:08;;;;;;;24.90;18.60;;;;;;;9.27;78.26;99867.05;87422;1285;22640;-78
2022/10/17 01:47:17;;;;;;;30.30;19.40;;;;;;;9.22;78.15;99861.73;87251;1291;99160;-78
2022/10/17 01:49:26;;;;;;;28.50;20.10;;;;;;;9.21;78.40;99859.16;87266;1296;22891;-77
2022/10/17 01:51:37;;;;;;;39.70;21.10;;;;;;;9.20;78.46;99860.06;86813;1303;24346;-78
2022/10/17 01:53:45;;;;;;;;;;;;;;;9.19;78.37;99862.89;86919;1296;98355;-76
2022/10/17 01:55:50;;;;;;;30.30;19.30;;;;;;;9.17;78.66;99861.17;87289;1301;22532;-78
2022/10/17 01:58:19;;;;;;;23.80;18.50;;;;;;;9.16;78.43;99862.44;86956;1296;22498;-78
2022/10/17 02:00:25;;;;;;;32.80;20.60;;;;;;;9.16;78.69;99864.02;86895;1295;98260;-79
2022/10/17 02:02:29;;;;;;;26.80;19.50;;;;;;;9.16;78.44;99863.14;86908;1290;22507;-77
2022/10/17 02:04:31;;;;;;;28.00;19.30;;;;;;;9.18;78.43;99864.86;87061;1283;22477;-77
2022/10/17 02:06:35;;;;;;;24.80;17.50;;;;;;;9.19;78.82;99865.88;87056;1294;97891;-77
2022/10/17 02:08:49;;;;;;;27.80;18.20;;;;;;;9.18;78.46;99865.74;86869;1296;22502;-78
2022/10/17 02:11:02;;;;;;;32.40;18.60;;;;;;;9.19;78.72;99868.33;86952;1296;98213;-78
2022/10/17 02:13:18;;;;;;;26.50;18.30;;;;;;;9.16;78.74;99866.48;86637;1289;22519;-77
2022/10/17 02:15:45;;;;;;;27.20;18.70;;;;;;;9.15;78.48;99865.45;86969;1300;22615;-79
2022/10/17 02:18:38;;;;;;;21.80;17.10;;;;;;;9.13;78.34;99865.67;87050;1283;99196;-76
2022/10/17 02:20:54;;;;;;;24.60;17.20;;;;;;;9.11;78.50;99863.99;86583;1306;23117;-78
2022/10/17 02:23:07;;;;;;;27.30;18.80;;;;;;;9.09;78.54;99863.84;86219;1295;98816;-78
2022/10/17 02:25:32;;;;;;;27.30;18.60;;;;;;;9.09;78.59;99868.44;86180;1296;25424;-77
2022/10/17 02:27:55;;;;;;;28.30;17.90;;;;;;;9.05;78.56;99865.73;85707;1301;22642;-78
2022/10/17 02:30:26;;;;;;;27.70;17.90;;;;;;;9.07;78.71;99867.44;85782;1293;98798;-79
2022/10/17 02:32:41;;;;;;;29.90;19.40;;;;;;;9.05;78.63;99868.36;85889;1301;25359;-79
2022/10/17 02:34:48;;;;;;;24.90;17.80;;;;;;;9.02;78.65;99865.96;85898;1298;22505;-79
2022/10/17 02:36:54;;;;;;;28.80;18.70;;;;;;;8.99;78.45;99866.07;86039;1303;25479;-78
2022/10/17 02:38:57;;;;;;;24.50;17.40;;;;;;;8.97;78.72;99866.99;85649;1303;22633;-77
2022/10/17 02:41:00;;;;;;;26.30;18.20;;;;;;;8.97;78.52;99864.89;85811;1312;99936;-78
2022/10/17 02:43:02;;;;;;;27.70;17.40;;;;;;;8.98;78.42;99863.09;85326;1305;24808;-76
2022/10/17 02:45:05;;;;;;;28.30;18.90;;;;;;;8.99;78.78;99867.46;85510;1296;24276;-78
2022/10/17 02:47:22;;;;;;;24.70;17.20;;;;;;;8.99;78.69;99868.52;85424;1295;98386;-79
2022/10/17 02:49:28;;;;;;;35.60;19.50;;;;;;;8.96;78.58;99868.44;85444;1303;22497;-78
2022/10/17 02:51:53;;;;;;;27.60;18.40;;;;;;;8.93;78.78;99870.79;85496;1299;25931;-78
2022/10/17 02:54:13;;;;;;;34.40;19.70;;;;;;;8.89;78.71;99879.67;85568;1302;98509;-78
2022/10/17 02:56:20;;;;;;;33.90;18.40;;;;;;;8.87;78.51;99880.59;85871;1303;24671;-77
2022/10/17 02:58:27;;;;;;;24.30;18.30;;;;;;;8.84;78.66;99880.13;86401;1297;22580;-77
2022/10/17 03:00:30;;;;;;;32.40;18.60;;;;;;;8.83;78.84;99881.20;86231;1296;98229;-77
2022/10/17 03:02:39;;;;;;;26.90;17.50;;;;;;;8.83;78.55;99882.09;85699;1298;22792;-78
2022/10/17 03:04:45;;;;;;;25.20;17.90;;;;;;;8.84;78.79;99881.89;85977;1297;25279;-78
2022/10/17 03:06:48;;;;;;;26.70;18.20;;;;;;;8.80;78.56;99891.29;86173;1291;98551;-78
2022/10/17 03:08:50;;;;;;;29.90;18.10;;;;;;;8.75;78.77;99887.21;86434;1291;22497;-78
2022/10/17 03:10:51;;;;;;;23.60;17.10;;;;;;;8.69;78.39;99888.25;86277;1283;98877;-79
2022/10/17 03:12:53;;;;;;;30.70;17.90;;;;;;;8.65;78.33;99892.54;86382;1286;22499;-79
2022/10/17 03:14:54;;;;;;;26.80;18.30;;;;;;;8.63;78.68;99893.64;86485;1294;22603;-79
2022/10/17 03:16:56;;;;;;;31.20;18.00;;;;;;;8.62;78.38;99892.78;86359;1286;98153;-78
2022/10/17 03:18:58;;;;;;;27.00;17.90;;;;;;;8.59;78.93;99895.30;86400;1297;25398;-79
2022/10/17 03:20:59;;;;;;;33.80;19.60;;;;;;;8.56;78.81;99898.91;86656;1283;22495;-77
2022/10/17 03:23:01;;;;;;;26.30;18.00;;;;;;;8.53;78.78;99896.17;86593;1287;98091;-77
2022/10/17 03:25:02;;;;;;;36.60;18.80;;;;;;;8.53;78.79;99894.95;86551;1285;22494;-78
2022/10/17 03:27:04;;;;;;;26.70;16.60;;;;;;;8.51;78.99;99898.66;86664;1286;22500;-79
2022/10/17 03:29:06;;;;;;;27.70;18.20;;;;;;;8.51;79.28;99899.20;86392;1293;98566;-79
2022/10/17 03:31:10;;;;;;;33.40;17.80;;;;;;;8.50;78.83;99899.57;86586;1292;23365;-79
2022/10/17 03:33:11;;;;;;;31.20;17.70;;;;;;;8.49;78.70;99907.14;86598;1292;24265;-79
2022/10/17 03:35:13;;;;;;;25.20;17.50;;;;;;;8.48;78.81;99908.75;86691;1289;98434;-77
2022/10/17 03:37:14;;;;;;;26.90;17.00;;;;;;;8.46;78.88;99912.64;86757;1286;24095;-76
2022/10/17 03:39:16;;;;;;;29.50;17.40;;;;;;;8.45;78.82;99914.41;86730;1292;22507;-78
2022/10/17 03:41:18;;;;;;;36.10;17.20;;;;;;;8.45;79.18;99915.83;87203;1290;98360;-78
2022/10/17 03:43:19;;;;;;;34.50;16.60;;;;;;;8.44;79.11;99923.17;86805;1286;22513;-76
2022/10/17 03:45:21;;;;;;;34.80;17.30;;;;;;;8.42;78.89;99926.02;86665;1292;23049;-78
2022/10/17 03:47:22;;;;;;;30.20;18.80;;;;;;;8.41;79.00;99929.72;86593;1287;98533;-78
2022/10/17 03:49:24;;;;;;;28.10;17.10;;;;;;;8.40;79.09;99927.12;86840;1284;255473;-79
2022/10/17 03:51:26;;;;;;;37.50;18.20;;;;;;;8.38;79.10;99926.65;86791;1293;22522;-78
2022/10/17 03:53:28;;;;;;;30.10;17.90;;;;;;;8.34;79.20;99921.65;86415;1290;98069;-79
2022/10/17 03:55:29;;;;;;;38.70;16.70;;;;;;;8.31;78.93;99921.00;86812;1283;22497;-79
2022/10/17 03:57:33;;;;;;;30.20;18.30;;;;;;;8.29;79.10;99916.16;86343;1287;23741;-79
2022/10/17 03:59:35;;;;;;;39.10;18.40;;;;;;;8.30;79.33;99921.23;86476;1293;98172;-78
2022/10/17 04:01:38;;;;;;;40.40;18.60;;;;;;;8.31;79.63;99926.77;86451;1286;22459;-79
2022/10/17 04:03:40;;;;;;;50.80;19.40;;;;;;;8.32;79.40;99936.74;86497;1292;23238;-77
2022/10/17 04:05:41;;;;;;;36.80;17.40;;;;;;;8.34;79.43;99937.59;86396;1286;99527;-80
2022/10/17 04:07:43;;;;;;;27.70;16.60;;;;;;;8.34;79.68;99936.52;86235;1289;22508;-79
2022/10/17 04:09:44;;;;;;;28.90;17.40;;;;;;;8.34;79.46;99934.97;86427;1293;23482;-78
2022/10/17 04:11:46;;;;;;;35.80;18.10;;;;;;;8.31;79.39;99925.40;86126;1292;98649;-78
2022/10/17 04:13:53;;;;;;;23.70;17.10;;;;;;;8.31;79.13;99927.15;86354;1292;22535;-81
2022/10/17 04:16:02;;;;;;;33.50;17.30;;;;;;;8.32;79.58;99928.00;86259;1293;22491;-77
2022/10/17 04:18:03;;;;;;;35.90;16.20;;;;;;;8.33;79.57;99929.20;86608;1284;98033;-78
2022/10/17 04:20:05;;;;;;;24.80;17.70;;;;;;;8.32;79.28;99932.55;86535;1292;22500;-78
2022/10/17 04:22:07;;;;;;;27.30;16.50;;;;;;;8.31;79.28;99934.84;86534;1291;22559;-78
2022/10/17 04:24:10;;;;;;;33.70;17.50;;;;;;;8.30;79.58;99935.92;86375;1285;99066;-78
2022/10/17 04:26:12;;;;;;;26.00;17.00;;;;;;;8.30;79.49;99934.02;86714;1284;22608;-79
2022/10/17 04:28:16;;;;;;;28.00;17.10;;;;;;;8.29;79.32;99937.37;86669;1299;22456;-81
2022/10/17 04:30:21;;;;;;;39.00;17.00;;;;;;;8.26;79.13;99944.23;86939;1291;97956;-78
2022/10/17 04:32:23;;;;;;;28.30;16.60;;;;;;;8.26;79.22;99950.20;87049;1284;22585;-79
2022/10/17 04:34:24;;;;;;;40.80;16.70;;;;;;;8.24;79.20;99953.75;86445;1291;22498;-79
2022/10/17 04:36:26;;;;;;;38.60;19.40;;;;;;;8.23;79.19;99955.52;85920;1286;97913;-79
2022/10/17 04:38:28;;;;;;;40.10;18.30;;;;;;;8.22;79.24;99954.69;86082;1293;22520;-80
2022/10/17 04:40:30;;;;;;;28.00;17.20;;;;;;;8.23;79.10;99955.54;86060;1295;22515;-79
2022/10/17 04:42:32;;;;;;;31.20;16.70;;;;;;;8.22;79.83;99950.65;86054;1290;98135;-79
2022/10/17 04:44:34;;;;;;;30.90;17.20;;;;;;;8.20;79.50;99951.92;85897;1286;22701;-78
2022/10/17 04:46:36;;;;;;;35.20;17.40;;;;;;;8.18;79.39;99952.84;85786;1286;22527;-78
2022/10/17 04:48:39;;;;;;;32.30;17.20;;;;;;;8.17;79.44;99952.52;85846;1291;97989;-78
2022/10/17 04:50:40;;;;;;;34.20;17.30;;;;;;;8.16;79.58;99952.88;86194;1287;22509;-79
2022/10/17 04:52:42;;;;;;;28.60;17.70;;;;;;;8.16;79.48;99953.59;85871;1286;22566;-79
2022/10/17 04:54:43;;;;;;;25.50;16.30;;;;;;;8.16;79.55;99955.85;86185;1283;97855;-79
2022/10/17 04:56:46;;;;;;;25.30;17.00;;;;;;;8.14;79.24;99956.77;86412;1294;22491;-79
2022/10/17 04:58:48;;;;;;;31.20;18.00;;;;;;;8.12;79.45;99956.11;86073;1286;23078;-78
2022/10/17 05:00:49;;;;;;;24.50;17.80;;;;;;;8.12;79.60;99958.41;86144;1283;22522;-79
2022/10/17 05:02:52;;;;;;;37.30;17.60;;;;;;;8.12;79.59;99959.81;85871;1292;22698;-79
2022/10/17 05:04:54;;;;;;;36.10;17.00;;;;;;;8.11;79.86;99963.15;86096;1286;98442;-79
2022/10/17 05:06:55;;;;;;;34.20;16.60;;;;;;;8.10;79.63;99958.98;86238;1288;22474;-80
2022/10/17 05:08:57;;;;;;;38.70;18.30;;;;;;;8.09;79.60;99960.05;85958;1283;22732;-79
2022/10/17 05:10:59;;;;;;;24.80;15.90;;;;;;;8.08;79.58;99958.66;86069;1291;99039;-80
2022/10/17 05:13:01;;;;;;;34.80;16.40;;;;;;;8.07;79.66;99956.75;86025;1283;23297;-81
2022/10/17 05:15:03;;;;;;;29.70;15.80;;;;;;;8.07;79.62;99961.48;86216;1284;24661;-80
2022/10/17 05:17:05;;;;;;;24.80;16.80;;;;;;;8.06;79.59;99963.60;86022;1293;98701;-80
2022/10/17 05:19:06;;;;;;;23.20;16.40;;;;;;;8.06;79.80;99968.51;86248;1284;22505;-79
2022/10/17 05:21:08;;;;;;;26.00;15.50;;;;;;;8.06;79.32;99968.52;85980;1291;22420;-78
2022/10/17 05:23:10;;;;;;;34.20;17.40;;;;;;;8.05;79.66;99964.86;85863;1286;98751;-80
2022/10/17 05:25:12;;;;;;;33.10;16.30;;;;;;;8.05;79.75;99962.94;86295;1283;22632;-79
2022/10/17 05:27:13;;;;;;;47.80;17.50;;;;;;;8.08;79.92;99961.29;86188;1286;23920;-79
2022/10/17 05:29:15;;;;;;;62.60;19.50;;;;;;;8.09;80.16;99963.71;86102;1291;97958;-78
2022/10/17 05:31:17;;;;;;;57.70;20.20;;;;;;;8.09;79.78;99964.77;86107;1286;22554;-80
2022/10/17 05:33:19;;;;;;;52.70;18.90;;;;;;;8.11;79.94;99967.17;86138;1292;22527;-80
2022/10/17 05:35:21;;;;;;;66.10;21.70;;;;;;;8.12;80.03;99966.63;86131;1283;99236;-80
2022/10/17 05:37:23;;;;;;;71.30;21.50;;;;;;;8.16;80.06;99968.98;86201;1283;22558;-79
2022/10/17 05:39:24;;;;;;;86.70;22.50;;;;;;;8.19;80.19;99969.80;86360;1291;22512;-79
2022/10/17 05:41:27;;;;;;;53.60;21.40;;;;;;;8.22;80.05;99972.71;86192;1291;98257;-79
2022/10/17 05:43:29;;;;;;;62.20;24.00;;;;;;;8.26;80.07;99972.96;86346;1283;24289;-79
2022/10/17 05:45:30;;;;;;;61.80;24.10;;;;;;;8.29;80.16;99976.94;86199;1289;22626;-78
2022/10/17 05:47:32;;;;;;;59.30;25.10;;;;;;;8.28;80.11;99972.92;85812;1293;98091;-79
2022/10/17 05:49:33;;;;;;;69.00;23.90;;;;;;;8.33;80.24;99980.86;86204;1283;22928;-79
2022/10/17 05:51:36;;;;;;;44.00;25.00;;;;;;;8.36;80.40;99983.77;86040;1286;22506;-80
2022/10/17 05:53:40;;;;;;;48.90;25.20;;;;;;;8.38;80.22;99988.96;86077;1286;98120;-78
2022/10/17 05:55:41;;;;;;;73.30;22.50;;;;;;;8.41;80.29;99994.86;86169;1287;23084;-80
2022/10/17 05:57:43;;;;;;;81.50;22.30;;;;;;;8.45;80.36;100000.04;86034;1291;23135;-80
2022/10/17 05:59:45;;;;;;;59.70;23.80;;;;;;;8.50;80.68;100006.78;86210;1286;98304;-81
2022/10/17 06:01:46;;;;;;;87.90;23.70;;;;;;;8.54;80.44;100005.45;86766;1291;22495;-78
2022/10/17 06:03:48;;;;;;;63.00;24.90;;;;;;;8.60;80.31;100008.64;86975;1290;22521;-80
2022/10/17 06:05:50;;;;;;;55.00;23.70;;;;;;;8.64;80.24;100012.75;86367;1286;98220;-81
2022/10/17 06:07:52;;;;;;;46.20;23.20;;;;;;;8.68;80.57;100007.40;86522;1289;22518;-81
2022/10/17 06:09:53;;;;;;;60.90;23.00;;;;;;;8.74;80.53;100006.22;86726;1290;22513;-82
2022/10/17 06:11:55;;;;;;;61.80;24.40;;;;;;;8.81;80.46;100012.02;86555;1299;98622;-82
2022/10/17 06:13:57;;;;;;;51.40;23.00;;;;;;;8.86;80.56;100014.68;86708;1298;22476;-80
2022/10/17 06:15:58;;;;;;;54.80;22.20;;;;;;;8.93;80.44;100020.30;86486;1290;24492;-77
2022/10/17 06:18:00;;;;;;;51.80;23.80;;;;;;;9.00;80.67;100022.59;85740;1296;98800;-76
2022/10/17 06:20:02;;;;;;;57.70;22.00;;;;;;;9.06;80.58;100024.35;85999;1299;23915;-76
2022/10/17 06:22:03;;;;;;;64.80;23.90;;;;;;;9.13;80.94;100026.47;85848;1293;22519;-76
2022/10/17 06:24:05;;;;;;;68.00;24.30;;;;;;;9.20;80.79;100028.23;86041;1297;114573;-77
2022/10/17 06:26:07;;;;;;;72.00;24.20;;;;;;;9.29;80.92;100036.58;85848;1300;24329;-76
2022/10/17 06:28:10;;;;;;;69.50;22.50;;;;;;;9.37;80.82;100034.27;85936;1291;22445;-77
2022/10/17 06:30:11;;;;;;;88.70;22.50;;;;;;;9.45;80.76;100030.91;85906;1290;99326;-76
2022/10/17 06:32:13;;;;;;;89.50;23.70;;;;;;;9.52;80.88;100032.45;86126;1289;22499;-76
2022/10/17 06:34:15;;;;;;;75.70;23.60;;;;;;;9.60;80.95;100035.23;86268;1291;22425;-78
2022/10/17 06:36:17;;;;;;;106.90;30.40;;;;;;;9.69;81.00;100031.66;85851;1294;99224;-76
2022/10/17 06:38:19;;;;;;;85.00;24.80;;;;;;;9.77;81.05;100034.41;85986;1286;25941;-76
2022/10/17 06:40:20;;;;;;;82.90;23.50;;;;;;;9.88;80.88;100039.92;85937;1292;26006;-76
2022/10/17 06:42:22;;;;;;;85.00;23.20;;;;;;;9.97;80.90;100042.11;86252;1286;98298;-75
2022/10/17 06:44:27;;;;;;;81.50;22.30;;;;;;;10.07;80.79;100041.85;86162;1286;25521;-75
2022/10/17 06:46:29;;;;;;;57.00;21.30;;;;;;;10.15;80.89;100040.55;85992;1293;24245;-75
2022/10/17 06:48:31;;;;;;;78.80;23.30;;;;;;;10.25;80.70;100047.99;86073;1290;99920;-74
2022/10/17 06:50:33;;;;;;;79.20;23.20;;;;;;;10.33;80.79;100049.33;86171;1287;24352;-75
2022/10/17 06:52:35;;;;;;;101.50;23.80;;;;;;;10.43;80.75;100050.84;86110;1287;25421;-75
2022/10/17 06:54:37;;;;;;;61.10;23.30;;;;;;;10.51;80.79;100049.00;85957;1286;100011;-76
2022/10/17 06:56:38;;;;;;;50.30;21.00;;;;;;;10.61;80.82;100054.48;86017;1290;23907;-76
2022/10/17 06:58:40;;;;;;;53.90;19.60;;;;;;;10.70;80.80;100050.89;86054;1291;22502;-76
2022/10/17 07:00:42;;;;;;;48.40;19.60;;;;;;;10.80;80.80;100053.02;85967;1286;98988;-75
2022/10/17 07:02:43;;;;;;;195.10;31.90;;;;;;;10.91;80.87;100055.50;85908;1286;22476;-78
2022/10/17 07:04:46;;;;;;;135.80;29.00;;;;;;;11.01;80.80;100062.38;85969;1293;22491;-76
2022/10/17 07:06:47;;;;;;;70.50;22.20;;;;;;;11.12;80.83;100066.59;86398;1294;98459;-75
2022/10/17 07:08:49;;;;;;;68.30;19.50;;;;;;;11.22;80.70;100066.25;86579;1294;22507;-75
2022/10/17 07:10:52;;;;;;;56.90;19.50;;;;;;;11.35;80.81;100066.00;86269;1293;99796;-76
2022/10/17 07:12:55;;;;;;;38.30;17.90;;;;;;;11.45;80.74;100062.48;86440;1291;22499;-76
2022/10/17 07:14:57;;;;;;;28.00;17.40;;;;;;;11.57;80.65;100063.31;86031;1291;25953;-75
2022/10/17 07:16:59;;;;;;;45.40;19.10;;;;;;;11.68;80.56;100057.99;85954;1292;99457;-75
2022/10/17 07:19:01;;;;;;;33.20;17.70;;;;;;;11.80;80.73;100059.36;86026;1290;22500;-76
2022/10/17 07:21:02;;;;;;;39.50;17.90;;;;;;;11.91;80.65;100060.88;85804;1289;22518;-75
2022/10/17 07:23:04;;;;;;;49.20;18.50;;;;;;;12.04;80.80;100064.33;86081;1287;99694;-75
2022/10/17 07:25:07;;;;;;;45.50;19.10;;;;;;;12.16;80.64;100065.83;86012;1292;24246;-75
2022/10/17 07:27:09;;;;;;;55.20;18.70;;;;;;;12.29;80.74;100065.33;86240;1284;22508;-75
2022/10/17 07:29:10;;;;;;;25.80;17.10;;;;;;;12.42;80.62;100063.42;86030;1286;99193;-75
2022/10/17 07:31:15;;;;;;;23.50;15.80;;;;;;;12.58;80.71;100063.88;86074;1292;22512;-74
2022/10/17 07:33:17;;;;;;;44.60;16.90;;;;;;;12.75;80.56;100063.41;86309;1299;22811;-75
2022/10/17 07:35:19;;;;;;;31.10;15.50;;;;;;;12.85;80.38;100058.94;85943;1290;99565;-76
2022/10/17 07:37:20;;;;;;;25.50;16.20;;;;;;;12.94;80.14;100057.33;86175;1291;26516;-75
2022/10/17 07:39:22;;;;;;;25.80;16.10;;;;;;;13.05;80.12;100054.92;86119;1290;22605;-75
2022/10/17 07:41:23;;;;;;;31.40;16.90;;;;;;;13.23;80.27;100054.21;85986;1294;99576;-75
2022/10/17 07:43:27;;;;;;;23.90;16.00;;;;;;;13.42;80.10;100055.19;85934;1291;25675;-73
2022/10/17 07:45:28;;;;;;;35.20;16.70;;;;;;;13.56;79.83;100052.52;85833;1290;25267;-75
2022/10/17 07:47:34;;;;;;;33.80;16.30;;;;;;;13.65;79.51;100052.84;85792;1290;99208;-75
2022/10/17 07:49:41;;;;;;;45.30;16.20;;;;;;;13.75;79.49;100052.72;85882;1291;24284;-75
2022/10/17 07:51:42;;;;;;;35.40;15.30;;;;;;;13.86;79.47;100055.45;85914;1286;24318;-73
2022/10/17 07:53:44;;;;;;;37.10;16.00;;;;;;;13.95;79.18;100055.20;85801;1284;100575;-74
2022/10/17 07:55:48;;;;;;;42.90;15.60;;;;;;;14.05;79.27;100051.76;85813;1286;22489;-73
2022/10/17 07:57:49;;;;;;;55.10;15.40;;;;;;;14.16;79.11;100055.52;85972;1283;23465;-73
2022/10/17 07:59:53;;;;;;;52.20;15.70;;;;;;;14.26;79.12;100058.23;85574;1293;98381;-73
2022/10/17 08:01:55;;;;;;;47.70;15.90;;;;;;;14.36;79.08;100063.24;85877;1298;24246;-74
2022/10/17 08:03:57;;;;;;;36.90;15.80;;;;;;;14.47;79.03;100070.70;85937;1301;24719;-76
2022/10/17 08:06:00;;;;;;;38.20;14.30;;;;;;;14.65;79.17;100075.69;85706;1299;99891;-73
2022/10/17 08:08:02;;;;;;;44.70;13.30;;;;;;;14.86;79.15;100070.66;85961;1284;22515;-75
2022/10/17 08:10:04;;;;;;;46.90;14.30;;;;;;;15.01;78.61;100073.81;85944;1291;23306;-74
2022/10/17 08:12:07;;;;;;;34.10;14.30;;;;;;;15.12;78.25;100074.52;85885;1293;100139;-75
2022/10/17 08:14:09;;;;;;;41.90;13.80;;;;;;;15.24;78.26;100075.38;85854;1288;22570;-73
2022/10/17 08:16:12;;;;;;;62.20;15.90;;;;;;;15.35;78.03;100073.41;85891;1294;22621;-72
2022/10/17 08:18:14;;;;;;;37.50;12.70;;;;;;;15.46;78.03;100074.58;85758;1288;99369;-75
2022/10/17 08:20:17;;;;;;;38.00;11.80;;;;;;;15.57;77.71;100073.19;85705;1286;25422;-74
2022/10/17 08:22:18;;;;;;;41.50;13.70;;;;;;;15.63;77.60;100073.90;85788;1294;22510;-76
2022/10/17 08:24:20;;;;;;;29.10;12.70;;;;;;;15.73;77.74;100072.86;85848;1290;99431;-74
2022/10/17 08:26:22;;;;;;;43.00;13.30;;;;;;;15.89;77.76;100074.20;85831;1291;23983;-74
2022/10/17 08:28:23;;;;;;;20.90;11.70;;;;;;;16.05;77.75;100068.92;85723;1290;22919;-74
2022/10/17 08:30:29;;;;;;;33.60;12.20;;;;;;;16.25;77.59;100066.83;85839;1283;99395;-73
2022/10/17 08:32:31;;;;;;;23.30;11.20;;;;;;;16.41;77.40;100068.05;85943;1286;24295;-73
2022/10/17 08:34:32;;;;;;;37.00;11.30;;;;;;;16.58;77.33;100066.92;85905;1291;23303;-72
2022/10/17 08:36:34;;;;;;;29.20;11.90;;;;;;;16.72;77.06;100070.98;85700;1291;99905;-73
2022/10/17 08:38:36;;;;;;;30.90;11.80;;;;;;;16.85;76.94;100068.64;85624;1286;22501;-73
2022/10/17 08:40:41;;;;;;;20.10;11.10;;;;;;;16.98;76.81;100074.54;85725;1287;24290;-76
2022/10/17 08:42:49;;;;;;;27.60;10.80;;;;;;;17.07;76.54;100072.20;86050;1284;99235;-74
2022/10/17 08:45:11;;;;;;;24.80;11.90;;;;;;;17.22;76.65;100072.75;85953;1283;22498;-74
2022/10/17 08:47:20;;;;;;;28.00;11.60;;;;;;;17.39;76.47;100076.39;85938;1291;99834;-74
2022/10/17 08:49:46;;;;;;;27.60;11.80;;;;;;;17.54;76.47;100079.05;85701;1289;22651;-75
2022/10/17 08:52:00;;;;;;;34.00;11.40;;;;;;;17.70;76.35;100084.16;85747;1293;24841;-73
2022/10/17 08:54:25;;;;;;;28.90;11.30;;;;;;;17.75;75.79;100082.29;85750;1289;99645;-73
2022/10/17 08:56:36;;;;;;;26.40;11.10;;;;;;;17.74;75.52;100082.52;85715;1289;22533;-73
2022/10/17 08:58:38;;;;;;;30.20;11.80;;;;;;;17.71;75.38;100080.91;85880;1289;25433;-73
2022/10/17 09:00:46;;;;;;;20.30;12.40;;;;;;;17.72;75.49;100081.23;85711;1290;98313;-75
2022/10/17 09:03:01;;;;;;;17.40;10.40;;;;;;;17.78;75.65;100078.33;86037;1290;24368;-73
2022/10/17 09:05:20;;;;;;;21.00;10.20;;;;;;;17.85;75.29;100080.73;85876;1289;100866;-73
2022/10/17 09:07:34;;;;;;;13.10;10.10;;;;;;;17.92;75.23;100082.91;85907;1290;22477;-73
2022/10/17 09:09:53;;;;;;;27.10;11.00;;;;;;;17.93;75.07;100078.20;85820;1290;22637;-74
2022/10/17 09:12:13;;;;;;;21.50;11.40;;;;;;;17.98;74.95;100077.70;85757;1287;99347;-74
2022/10/17 09:14:24;;;;;;;23.90;11.20;;;;;;;18.05;75.22;100073.52;85926;1291;25867;-74
2022/10/17 09:16:58;;;;;;;28.30;11.20;;;;;;;18.17;74.97;100071.01;85906;1290;22445;-73
2022/10/17 09:19:09;;;;;;;17.80;10.10;;;;;;;18.33;74.85;100064.14;85871;1289;22571;-74
2022/10/17 09:21:29;;;;;;;;;;;;;;;18.53;74.71;100066.30;86366;1291;24698;-74
2022/10/17 09:23:48;;;;;;;21.60;10.40;;;;;;;18.62;74.52;100066.79;85903;1289;85226;-74
2022/10/17 09:25:53;;;;;;;20.20;11.40;;;;;;;18.69;74.27;100062.40;85895;1290;23387;-71
2022/10/17 09:28:10;;;;;;;16.80;10.10;;;;;;;18.78;73.91;100070.17;85847;1290;22486;-75
2022/10/17 09:30:42;;;;;;;14.30;10.10;;;;;;;18.91;73.90;100072.23;85666;1290;99518;-73
2022/10/17 09:32:46;;;;;;;36.40;9.50;;;;;;;19.05;73.72;100072.73;85838;1289;23920;-71
2022/10/17 09:34:48;;;;;;;16.20;10.10;;;;;;;19.11;73.39;100070.56;85466;1293;22555;-73
2022/10/17 09:36:49;;;;;;;25.60;10.00;;;;;;;19.24;73.76;100078.81;85809;1289;98317;-73
2022/10/17 09:38:57;;;;;;;26.30;9.60;;;;;;;19.43;73.73;100078.21;85818;1291;22505;-73
2022/10/17 09:41:01;;;;;;;16.10;9.50;;;;;;;19.57;73.22;100080.88;86793;1290;99784;-72
2022/10/17 09:43:05;;;;;;;35.90;10.50;;;;;;;19.59;72.71;100080.40;85586;1289;22587;-71